sensor_id;sensor_type;location;lat;lon;timestamp;pressure;altitude;pressure_sealevel;temperature;humidity
63405;BME280;49541;57.840;12.306;2022-08-07T00:00:20;101254.44;;;14.46;80.84
63405;BME280;49541;57.840;12.306;2022-08-07T00:05:20;101249.06;;;14.56;80.62
63405;BME280;49541;57.840;12.306;2022-08-07T00:10:21;101259.22;;;14.52;80.48
63405;BME280;49541;57.840;12.306;2022-08-07T00:15:22;101252.75;;;14.55;80.35
63405;BME280;49541;57.840;12.306;2022-08-07T00:20:24;101265.56;;;14.42;81.23
63405;BME280;49541;57.840;12.306;2022-08-07T00:25:25;101261.75;;;14.34;81.30
63405;BME280;49541;57.840;12.306;2022-08-07T00:30:25;101260.34;;;14.40;80.77
63405;BME280;49541;57.840;12.306;2022-08-07T00:35:26;101254.03;;;14.61;79.82
63405;BME280;49541;57.840;12.306;2022-08-07T00:40:27;101259.78;;;14.66;79.67
63405;BME280;49541;57.840;12.306;2022-08-07T00:45:27;101263.75;;;14.71;79.57
63405;BME280;49541;57.840;12.306;2022-08-07T00:50:28;101259.53;;;14.59;80.31
63405;BME280;49541;57.840;12.306;2022-08-07T00:55:28;101267.13;;;14.73;79.10
63405;BME280;49541;57.840;12.306;2022-08-07T01:00:29;101267.97;;;14.74;79.06
63405;BME280;49541;57.840;12.306;2022-08-07T01:05:29;101259.78;;;14.76;78.62
63405;BME280;49541;57.840;12.306;2022-08-07T01:10:31;101257.75;;;14.97;78.19
63405;BME280;49541;57.840;12.306;2022-08-07T01:15:31;101266.00;;;15.23;76.89
63405;BME280;49541;57.840;12.306;2022-08-07T01:20:34;101261.47;;;15.24;76.52
63405;BME280;49541;57.840;12.306;2022-08-07T01:25:36;101268.63;;;15.33;75.16
63405;BME280;49541;57.840;12.306;2022-08-07T01:30:39;101270.16;;;15.08;75.95
63405;BME280;49541;57.840;12.306;2022-08-07T01:35:40;101272.91;;;15.26;74.60
63405;BME280;49541;57.840;12.306;2022-08-07T01:40:40;101268.50;;;15.34;74.67
63405;BME280;49541;57.840;12.306;2022-08-07T01:45:42;101266.53;;;15.27;74.98
63405;BME280;49541;57.840;12.306;2022-08-07T01:50:44;101270.97;;;15.08;75.24
63405;BME280;49541;57.840;12.306;2022-08-07T01:55:49;101274.13;;;14.94;76.19
63405;BME280;49541;57.840;12.306;2022-08-07T02:00:52;101265.91;;;15.05;75.33
63405;BME280;49541;57.840;12.306;2022-08-07T02:05:54;101259.88;;;14.84;75.75
63405;BME280;49541;57.840;12.306;2022-08-07T02:10:56;101260.97;;;15.01;74.99
63405;BME280;49541;57.840;12.306;2022-08-07T02:15:58;101260.97;;;15.10;73.93
63405;BME280;49541;57.840;12.306;2022-08-07T02:21:00;101254.06;;;14.98;74.29
63405;BME280;49541;57.840;12.306;2022-08-07T02:26:01;101266.19;;;15.02;73.65
63405;BME280;49541;57.840;12.306;2022-08-07T02:31:02;101257.78;;;14.87;73.33
63405;BME280;49541;57.840;12.306;2022-08-07T02:36:04;101258.66;;;14.68;74.03
63405;BME280;49541;57.840;12.306;2022-08-07T02:41:05;101269.66;;;14.56;75.30
63405;BME280;49541;57.840;12.306;2022-08-07T02:46:06;101256.63;;;14.90;73.54
63405;BME280;49541;57.840;12.306;2022-08-07T02:51:09;101262.75;;;14.72;73.63
63405;BME280;49541;57.840;12.306;2022-08-07T02:56:12;101261.22;;;15.07;72.69
63405;BME280;49541;57.840;12.306;2022-08-07T03:01:13;101262.28;;;14.87;73.58
63405;BME280;49541;57.840;12.306;2022-08-07T03:06:17;101267.28;;;15.19;71.89
63405;BME280;49541;57.840;12.306;2022-08-07T03:11:17;101261.41;;;14.96;72.14
63405;BME280;49541;57.840;12.306;2022-08-07T03:16:19;101260.53;;;15.05;72.47
63405;BME280;49541;57.840;12.306;2022-08-07T03:21:19;101256.69;;;14.70;74.27
63405;BME280;49541;57.840;12.306;2022-08-07T03:26:22;101261.19;;;14.41;76.12
63405;BME280;49541;57.840;12.306;2022-08-07T03:31:23;101259.50;;;14.40;76.76
63405;BME280;49541;57.840;12.306;2022-08-07T03:36:26;101252.28;;;14.89;75.24
63405;BME280;49541;57.840;12.306;2022-08-07T03:41:27;101251.22;;;15.09;73.51
63405;BME280;49541;57.840;12.306;2022-08-07T03:46:28;101256.28;;;15.68;72.37
63405;BME280;49541;57.840;12.306;2022-08-07T03:51:30;101255.72;;;15.74;71.52
63405;BME280;49541;57.840;12.306;2022-08-07T03:56:32;101256.50;;;15.56;72.95
63405;BME280;49541;57.840;12.306;2022-08-07T04:01:33;101250.63;;;15.15;74.38
63405;BME280;49541;57.840;12.306;2022-08-07T04:06:35;101256.72;;;15.45;74.04
63405;BME280;49541;57.840;12.306;2022-08-07T04:11:35;101251.53;;;15.89;71.94
63405;BME280;49541;57.840;12.306;2022-08-07T04:16:36;101258.59;;;15.72;72.61
63405;BME280;49541;57.840;12.306;2022-08-07T04:21:37;101256.72;;;15.45;73.96
63405;BME280;49541;57.840;12.306;2022-08-07T04:26:37;101262.38;;;15.42;74.41
63405;BME280;49541;57.840;12.306;2022-08-07T04:31:38;101267.03;;;15.77;73.51
63405;BME280;49541;57.840;12.306;2022-08-07T04:36:39;101269.50;;;15.89;72.67
63405;BME280;49541;57.840;12.306;2022-08-07T04:41:39;101270.16;;;15.73;73.80
63405;BME280;49541;57.840;12.306;2022-08-07T04:46:58;101281.25;;;15.50;74.14
63405;BME280;49541;57.840;12.306;2022-08-07T04:52:09;101277.72;;;15.50;73.80
63405;BME280;49541;57.840;12.306;2022-08-07T04:57:19;101280.38;;;15.60;73.02
63405;BME280;49541;57.840;12.306;2022-08-07T05:02:23;101289.19;;;15.70;71.93
63405;BME280;49541;57.840;12.306;2022-08-07T05:07:43;101285.75;;;15.60;71.31
63405;BME280;49541;57.840;12.306;2022-08-07T05:12:51;101279.09;;;15.26;71.21
63405;BME280;49541;57.840;12.306;2022-08-07T05:17:58;101279.28;;;15.15;71.97
63405;BME280;49541;57.840;12.306;2022-08-07T05:23:05;101285.50;;;15.15;70.88
63405;BME280;49541;57.840;12.306;2022-08-07T05:28:07;101302.88;;;15.11;70.30
63405;BME280;49541;57.840;12.306;2022-08-07T05:33:08;101297.25;;;15.42;69.00
63405;BME280;49541;57.840;12.306;2022-08-07T05:38:11;101297.94;;;15.44;68.50
63405;BME280;49541;57.840;12.306;2022-08-07T05:43:12;101305.00;;;15.45;67.55
63405;BME280;49541;57.840;12.306;2022-08-07T05:48:12;101308.59;;;15.64;67.10
63405;BME280;49541;57.840;12.306;2022-08-07T05:53:13;101312.34;;;15.81;65.58
63405;BME280;49541;57.840;12.306;2022-08-07T05:58:14;101311.88;;;15.57;66.62
63405;BME280;49541;57.840;12.306;2022-08-07T06:03:15;101326.47;;;15.45;67.52
63405;BME280;49541;57.840;12.306;2022-08-07T06:08:17;101322.69;;;15.75;66.73
63405;BME280;49541;57.840;12.306;2022-08-07T06:13:18;101323.16;;;15.99;66.33
63405;BME280;49541;57.840;12.306;2022-08-07T06:18:18;101329.09;;;16.38;64.64
63405;BME280;49541;57.840;12.306;2022-08-07T06:23:20;101343.97;;;16.32;65.00
63405;BME280;49541;57.840;12.306;2022-08-07T06:28:20;101336.47;;;16.36;65.27
63405;BME280;49541;57.840;12.306;2022-08-07T06:33:20;101347.44;;;16.43;65.05
63405;BME280;49541;57.840;12.306;2022-08-07T06:38:21;101350.38;;;16.04;66.21
63405;BME280;49541;57.840;12.306;2022-08-07T06:43:22;101348.59;;;16.22;66.50
63405;BME280;49541;57.840;12.306;2022-08-07T06:48:23;101362.03;;;16.22;64.54
63405;BME280;49541;57.840;12.306;2022-08-07T06:53:25;101354.66;;;16.60;64.45
63405;BME280;49541;57.840;12.306;2022-08-07T06:58:26;101367.19;;;16.69;61.86
63405;BME280;49541;57.840;12.306;2022-08-07T07:03:26;101374.94;;;16.09;62.09
63405;BME280;49541;57.840;12.306;2022-08-07T07:08:27;101364.91;;;16.11;61.68
63405;BME280;49541;57.840;12.306;2022-08-07T07:13:39;101375.94;;;16.08;60.71
63405;BME280;49541;57.840;12.306;2022-08-07T07:18:45;101374.81;;;16.10;60.45
63405;BME280;49541;57.840;12.306;2022-08-07T07:23:47;101378.94;;;16.05;60.81
63405;BME280;49541;57.840;12.306;2022-08-07T07:28:51;101375.91;;;15.90;61.88
63405;BME280;49541;57.840;12.306;2022-08-07T07:33:53;101377.91;;;16.15;61.19
63405;BME280;49541;57.840;12.306;2022-08-07T07:38:55;101387.47;;;16.46;60.54
63405;BME280;49541;57.840;12.306;2022-08-07T07:43:56;101390.75;;;16.40;61.28
63405;BME280;49541;57.840;12.306;2022-08-07T07:48:57;101399.53;;;16.14;62.81
63405;BME280;49541;57.840;12.306;2022-08-07T07:53:59;101394.84;;;16.16;63.43
63405;BME280;49541;57.840;12.306;2022-08-07T07:59:03;101402.31;;;16.22;64.33
63405;BME280;49541;57.840;12.306;2022-08-07T08:04:04;101404.78;;;16.06;65.91
63405;BME280;49541;57.840;12.306;2022-08-07T08:09:05;101398.97;;;16.10;67.03
63405;BME280;49541;57.840;12.306;2022-08-07T08:14:06;101390.66;;;16.04;66.96
63405;BME280;49541;57.840;12.306;2022-08-07T08:19:08;101393.34;;;16.31;63.59
63405;BME280;49541;57.840;12.306;2022-08-07T08:24:09;101395.44;;;16.10;63.16
63405;BME280;49541;57.840;12.306;2022-08-07T08:29:28;101396.16;;;16.12;62.36
63405;BME280;49541;57.840;12.306;2022-08-07T08:34:31;101404.75;;;16.15;62.46
63405;BME280;49541;57.840;12.306;2022-08-07T08:39:32;101398.81;;;16.57;57.94
63405;BME280;49541;57.840;12.306;2022-08-07T08:44:50;101406.88;;;16.40;57.24
63405;BME280;49541;57.840;12.306;2022-08-07T08:54:57;101409.81;;;16.18;60.74
63405;BME280;49541;57.840;12.306;2022-08-07T09:00:00;101413.22;;;16.38;62.28
63405;BME280;49541;57.840;12.306;2022-08-07T09:15:11;101395.47;;;16.28;64.00
63405;BME280;49541;57.840;12.306;2022-08-07T09:25:48;101395.53;;;16.46;62.28
63405;BME280;49541;57.840;12.306;2022-08-07T09:46:16;101414.38;;;15.71;68.17
63405;BME280;49541;57.840;12.306;2022-08-07T10:17:17;101413.56;;;15.61;67.88
63405;BME280;49541;57.840;12.306;2022-08-07T10:47:58;101383.41;;;15.86;69.55
63405;BME280;49541;57.840;12.306;2022-08-07T10:53:09;101374.06;;;15.90;69.99
63405;BME280;49541;57.840;12.306;2022-08-07T11:03:14;101369.69;;;16.71;67.34
63405;BME280;49541;57.840;12.306;2022-08-07T11:08:19;101365.19;;;17.68;63.11
63405;BME280;49541;57.840;12.306;2022-08-07T11:14:09;101365.09;;;18.20;60.73
63405;BME280;49541;57.840;12.306;2022-08-07T11:18:49;101350.72;;;17.69;61.69
63405;BME280;49541;57.840;12.306;2022-08-07T11:23:58;101351.75;;;17.76;61.76
63405;BME280;49541;57.840;12.306;2022-08-07T11:29:08;101369.03;;;17.31;62.45
63405;BME280;49541;57.840;12.306;2022-08-07T11:34:53;101366.31;;;16.69;65.96
63405;BME280;49541;57.840;12.306;2022-08-07T11:44:49;101358.88;;;16.45;66.81
63405;BME280;49541;57.840;12.306;2022-08-07T11:49:55;101379.22;;;15.74;69.60
63405;BME280;49541;57.840;12.306;2022-08-07T12:00:24;101355.63;;;16.23;70.16
63405;BME280;49541;57.840;12.306;2022-08-07T12:10:59;101348.31;;;17.05;67.64
63405;BME280;49541;57.840;12.306;2022-08-07T12:16:04;101349.28;;;16.96;67.05
63405;BME280;49541;57.840;12.306;2022-08-07T12:36:45;101339.91;;;17.26;64.08
63405;BME280;49541;57.840;12.306;2022-08-07T12:41:47;101341.69;;;17.17;64.60
63405;BME280;49541;57.840;12.306;2022-08-07T12:52:11;101341.63;;;16.83;63.97
63405;BME280;49541;57.840;12.306;2022-08-07T12:57:12;101347.13;;;16.82;63.91
63405;BME280;49541;57.840;12.306;2022-08-07T13:17:49;101353.97;;;16.40;66.95
63405;BME280;49541;57.840;12.306;2022-08-07T13:22:55;101353.59;;;16.53;65.97
63405;BME280;49541;57.840;12.306;2022-08-07T13:28:01;101352.13;;;16.94;64.81
63405;BME280;49541;57.840;12.306;2022-08-07T13:43:04;101348.19;;;17.67;62.71
63405;BME280;49541;57.840;12.306;2022-08-07T13:48:05;101349.72;;;16.73;68.11
63405;BME280;49541;57.840;12.306;2022-08-07T13:53:06;101342.91;;;16.25;72.38
63405;BME280;49541;57.840;12.306;2022-08-07T13:58:08;101346.25;;;16.09;74.27
63405;BME280;49541;57.840;12.306;2022-08-07T14:03:29;101356.94;;;15.91;76.00
63405;BME280;49541;57.840;12.306;2022-08-07T14:08:30;101363.91;;;15.47;78.86
63405;BME280;49541;57.840;12.306;2022-08-07T14:13:32;101344.19;;;15.66;77.31
63405;BME280;49541;57.840;12.306;2022-08-07T14:18:37;101340.47;;;16.04;78.01
63405;BME280;49541;57.840;12.306;2022-08-07T14:23:52;101337.50;;;16.07;76.86
63405;BME280;49541;57.840;12.306;2022-08-07T14:28:53;101339.63;;;16.04;77.20
63405;BME280;49541;57.840;12.306;2022-08-07T14:33:55;101330.78;;;15.93;78.60
63405;BME280;49541;57.840;12.306;2022-08-07T14:38:56;101341.72;;;16.10;77.71
63405;BME280;49541;57.840;12.306;2022-08-07T14:44:02;101331.84;;;16.64;75.49
63405;BME280;49541;57.840;12.306;2022-08-07T14:49:05;101332.94;;;17.15;75.97
63405;BME280;49541;57.840;12.306;2022-08-07T14:54:06;101331.75;;;18.29;69.20
63405;BME280;49541;57.840;12.306;2022-08-07T14:59:08;101330.31;;;17.92;67.48
63405;BME280;49541;57.840;12.306;2022-08-07T15:04:09;101329.22;;;17.77;68.93
63405;BME280;49541;57.840;12.306;2022-08-07T15:09:10;101328.47;;;17.58;69.81
63405;BME280;49541;57.840;12.306;2022-08-07T15:14:14;101322.81;;;17.78;68.44
63405;BME280;49541;57.840;12.306;2022-08-07T15:19:16;101319.94;;;18.14;67.08
63405;BME280;49541;57.840;12.306;2022-08-07T15:24:18;101307.50;;;18.21;67.37
63405;BME280;49541;57.840;12.306;2022-08-07T15:29:19;101309.84;;;18.16;66.76
63405;BME280;49541;57.840;12.306;2022-08-07T15:34:20;101316.59;;;18.20;65.95
63405;BME280;49541;57.840;12.306;2022-08-07T15:39:21;101307.38;;;17.46;69.25
63405;BME280;49541;57.840;12.306;2022-08-07T15:44:22;101300.13;;;17.38;71.63
63405;BME280;49541;57.840;12.306;2022-08-07T15:49:27;101301.47;;;17.42;72.43
63405;BME280;49541;57.840;12.306;2022-08-07T15:54:35;101307.81;;;17.67;72.21
63405;BME280;49541;57.840;12.306;2022-08-07T15:59:36;101301.75;;;17.65;71.66
63405;BME280;49541;57.840;12.306;2022-08-07T16:04:38;101299.88;;;17.31;73.96
63405;BME280;49541;57.840;12.306;2022-08-07T16:09:51;101291.06;;;17.13;74.56
63405;BME280;49541;57.840;12.306;2022-08-07T16:20:13;101289.34;;;17.38;74.02
63405;BME280;49541;57.840;12.306;2022-08-07T16:25:30;101289.34;;;17.80;73.08
63405;BME280;49541;57.840;12.306;2022-08-07T16:30:33;101288.84;;;17.77;72.42
63405;BME280;49541;57.840;12.306;2022-08-07T16:35:40;101291.66;;;17.67;71.99
63405;BME280;49541;57.840;12.306;2022-08-07T16:51:15;101284.25;;;18.20;70.10
63405;BME280;49541;57.840;12.306;2022-08-07T16:56:22;101286.22;;;18.01;70.66
63405;BME280;49541;57.840;12.306;2022-08-07T17:06:50;101275.19;;;17.78;69.91
63405;BME280;49541;57.840;12.306;2022-08-07T17:11:56;101281.03;;;18.08;67.64
63405;BME280;49541;57.840;12.306;2022-08-07T17:16:59;101282.53;;;18.11;67.39
63405;BME280;49541;57.840;12.306;2022-08-07T17:37:42;101273.34;;;17.71;67.12
63405;BME280;49541;57.840;12.306;2022-08-07T17:42:52;101273.09;;;17.90;64.45
63405;BME280;49541;57.840;12.306;2022-08-07T17:48:09;101283.31;;;17.44;66.31
63405;BME280;49541;57.840;12.306;2022-08-07T17:53:11;101275.53;;;17.33;66.86
63405;BME280;49541;57.840;12.306;2022-08-07T18:03:46;101271.94;;;17.58;66.86
63405;BME280;49541;57.840;12.306;2022-08-07T18:08:50;101269.03;;;17.86;66.28
63405;BME280;49541;57.840;12.306;2022-08-07T18:14:03;101279.38;;;18.32;64.24
63405;BME280;49541;57.840;12.306;2022-08-07T18:19:11;101290.34;;;18.47;63.96
63405;BME280;49541;57.840;12.306;2022-08-07T18:24:15;101278.38;;;18.25;64.54
63405;BME280;49541;57.840;12.306;2022-08-07T18:29:22;101281.56;;;18.36;64.63
63405;BME280;49541;57.840;12.306;2022-08-07T18:34:28;101281.91;;;18.41;65.10
63405;BME280;49541;57.840;12.306;2022-08-07T18:55:23;101285.78;;;18.39;66.04
63405;BME280;49541;57.840;12.306;2022-08-07T19:11:09;101302.47;;;18.42;66.07
63405;BME280;49541;57.840;12.306;2022-08-07T19:16:17;101310.25;;;16.92;73.29
63405;BME280;49541;57.840;12.306;2022-08-07T19:26:24;101309.25;;;15.85;78.35
63405;BME280;49541;57.840;12.306;2022-08-07T19:31:26;101307.00;;;15.43;81.67
63405;BME280;49541;57.840;12.306;2022-08-07T19:36:29;101306.03;;;15.34;82.31
63405;BME280;49541;57.840;12.306;2022-08-07T19:41:43;101320.59;;;15.32;83.48
63405;BME280;49541;57.840;12.306;2022-08-07T19:46:45;101319.03;;;15.67;82.57
63405;BME280;49541;57.840;12.306;2022-08-07T19:51:46;101315.78;;;16.01;81.88
63405;BME280;49541;57.840;12.306;2022-08-07T19:56:48;101316.50;;;16.21;79.79
63405;BME280;49541;57.840;12.306;2022-08-07T20:01:50;101322.03;;;16.55;77.89
63405;BME280;49541;57.840;12.306;2022-08-07T20:06:51;101328.78;;;16.41;77.94
63405;BME280;49541;57.840;12.306;2022-08-07T20:11:53;101323.47;;;16.49;78.20
63405;BME280;49541;57.840;12.306;2022-08-07T20:16:56;101316.94;;;16.34;78.67
63405;BME280;49541;57.840;12.306;2022-08-07T20:21:56;101326.72;;;16.53;77.43
63405;BME280;49541;57.840;12.306;2022-08-07T20:26:57;101330.16;;;16.81;75.70
63405;BME280;49541;57.840;12.306;2022-08-07T20:32:01;101334.53;;;16.64;77.16
63405;BME280;49541;57.840;12.306;2022-08-07T20:37:02;101334.38;;;16.66;77.86
63405;BME280;49541;57.840;12.306;2022-08-07T20:42:06;101335.63;;;17.15;74.95
63405;BME280;49541;57.840;12.306;2022-08-07T20:47:07;101334.13;;;16.77;76.18
63405;BME280;49541;57.840;12.306;2022-08-07T20:52:16;101329.41;;;16.89;76.60
63405;BME280;49541;57.840;12.306;2022-08-07T20:57:18;101321.97;;;16.83;77.55
63405;BME280;49541;57.840;12.306;2022-08-07T21:02:20;101317.97;;;16.87;77.79
63405;BME280;49541;57.840;12.306;2022-08-07T21:07:41;101325.22;;;16.94;76.49
63405;BME280;49541;57.840;12.306;2022-08-07T21:12:41;101315.97;;;16.89;76.82
63405;BME280;49541;57.840;12.306;2022-08-07T21:17:46;101312.72;;;17.11;76.51
63405;BME280;49541;57.840;12.306;2022-08-07T21:22:50;101318.22;;;17.02;77.02
63405;BME280;49541;57.840;12.306;2022-08-07T21:38:19;101321.53;;;17.22;75.58
63405;BME280;49541;57.840;12.306;2022-08-07T21:49:09;101326.75;;;16.97;76.22
63405;BME280;49541;57.840;12.306;2022-08-07T21:53:51;101327.56;;;17.15;76.14
63405;BME280;49541;57.840;12.306;2022-08-07T22:03:57;101326.75;;;17.49;73.98
63405;BME280;49541;57.840;12.306;2022-08-07T22:09:02;101331.94;;;17.16;75.17
63405;BME280;49541;57.840;12.306;2022-08-07T22:14:03;101328.31;;;17.26;75.17
63405;BME280;49541;57.840;12.306;2022-08-07T22:19:22;101325.06;;;17.22;74.93
63405;BME280;49541;57.840;12.306;2022-08-07T22:24:25;101326.66;;;17.67;73.41
63405;BME280;49541;57.840;12.306;2022-08-07T22:29:33;101325.03;;;17.48;74.07
63405;BME280;49541;57.840;12.306;2022-08-07T22:34:39;101323.13;;;17.06;75.24
63405;BME280;49541;57.840;12.306;2022-08-07T22:39:44;101325.66;;;17.34;74.83
63405;BME280;49541;57.840;12.306;2022-08-07T22:44:50;101332.94;;;17.15;74.59
63405;BME280;49541;57.840;12.306;2022-08-07T23:00:26;101340.84;;;16.55;77.93
63405;BME280;49541;57.840;12.306;2022-08-07T23:05:38;101338.97;;;16.73;77.92
63405;BME280;49541;57.840;12.306;2022-08-07T23:21:27;101343.16;;;17.12;74.69
63405;BME280;49541;57.840;12.306;2022-08-07T23:37:40;101340.44;;;17.04;75.30
